Time;durP1;ratioP1;P1;durP2;ratioP2;P2;SDS_P1;SDS_P2;PMS_P1;PMS_P2;Temp;Humidity;BMP_temperature;BMP_pressure;BME280_temperature;BME280_humidity;BME280_pressure;Samples;Min_cycle;Max_cycle;Signal;HPM_P1;HPM_P2
2023/09/29 00:00:41;;;;;;;18.15;3.75;;;17.80;99.90;;;;;;5069065;28;20041;-71
2023/09/29 00:03:08;;;;;;;22.42;4.30;;;17.90;99.90;;;;;;5071509;28;20048;-71
2023/09/29 00:05:34;;;;;;;17.77;3.97;;;17.90;99.90;;;;;;5072744;28;20054;-71
2023/09/29 00:08:00;;;;;;;15.07;3.70;;;17.90;99.90;;;;;;5072885;28;20029;-71
2023/09/29 00:10:25;;;;;;;22.10;3.95;;;17.90;99.90;;;;;;5072867;28;20021;-71
2023/09/29 00:12:51;;;;;;;18.25;3.85;;;17.90;99.90;;;;;;5072615;28;20353;-71
2023/09/29 00:15:18;;;;;;;19.70;3.78;;;17.90;99.90;;;;;;5061484;28;20028;-71
2023/09/29 00:17:44;;;;;;;26.17;4.32;;;18.00;99.90;;;;;;5071369;28;20033;-71
2023/09/29 00:20:33;;;;;;;14.82;3.78;;;18.00;99.90;;;;;;5072881;28;20013;-71
2023/09/29 00:22:59;;;;;;;18.67;4.13;;;18.00;99.90;;;;;;5072125;28;20048;-71
2023/09/29 00:25:26;;;;;;;19.52;4.20;;;18.00;99.90;;;;;;5072904;28;20725;-73
2023/09/29 00:27:52;;;;;;;14.85;3.55;;;17.90;99.90;;;;;;5072525;28;20024;-71
2023/09/29 00:30:18;;;;;;;16.60;4.05;;;17.90;99.90;;;;;;5072483;28;20075;-71
2023/09/29 00:32:48;;;;;;;17.27;4.15;;;18.00;99.90;;;;;;5072222;28;20025;-71
2023/09/29 00:35:23;;;;;;;15.85;3.60;;;17.90;99.90;;;;;;5072288;28;20036;-71
2023/09/29 00:37:51;;;;;;;20.45;4.00;;;17.90;99.90;;;;;;5072217;28;20033;-71
2023/09/29 00:40:17;;;;;;;21.60;4.22;;;18.00;99.90;;;;;;5071469;28;20017;-71
2023/09/29 00:42:43;;;;;;;16.73;4.38;;;18.00;99.90;;;;;;5072229;28;20032;-71
2023/09/29 00:45:10;;;;;;;18.33;4.30;;;18.00;99.90;;;;;;5072113;28;20032;-71
2023/09/29 00:47:37;;;;;;;19.75;4.03;;;18.00;99.90;;;;;;5072491;28;20044;-71
2023/09/29 00:50:07;;;;;;;21.30;4.55;;;18.00;99.90;;;;;;5071179;28;20016;-71
2023/09/29 00:52:37;;;;;;;15.68;3.95;;;17.90;99.90;;;;;;5063367;28;20442;-71
2023/09/29 00:55:22;;;;;;;16.73;3.90;;;18.00;99.90;;;;;;5071740;28;20028;-71
2023/09/29 00:57:48;;;;;;;17.77;3.58;;;18.00;99.90;;;;;;5071822;28;20017;-71
2023/09/29 01:00:21;;;;;;;21.35;4.18;;;17.90;99.90;;;;;;5071974;28;20027;-71
2023/09/29 01:02:50;;;;;;;22.63;4.68;;;18.00;99.90;;;;;;5067054;28;20032;-71
2023/09/29 01:05:16;;;;;;;18.55;4.22;;;17.90;99.90;;;;;;5071454;28;20060;-71
2023/09/29 01:07:43;;;;;;;16.23;3.65;;;17.90;99.90;;;;;;5071774;28;20038;-71
2023/09/29 01:10:13;;;;;;;18.75;3.80;;;17.90;99.90;;;;;;5072083;28;20035;-71
2023/09/29 01:12:43;;;;;;;20.45;4.53;;;17.90;99.90;;;;;;5071518;28;20028;-71
2023/09/29 01:15:12;;;;;;;18.02;4.38;;;17.90;99.90;;;;;;5071468;28;20156;-71
2023/09/29 01:17:42;;;;;;;18.98;4.38;;;17.90;99.90;;;;;;5086093;28;20502;-71
2023/09/29 01:20:18;;;;;;;19.90;4.53;;;17.90;99.90;;;;;;5071516;28;20020;-71
2023/09/29 01:22:45;;;;;;;21.23;4.22;;;17.80;99.90;;;;;;5071691;28;20459;-71
2023/09/29 01:25:12;;;;;;;21.23;4.13;;;17.80;99.90;;;;;;5071112;28;20103;-71
2023/09/29 01:27:38;;;;;;;18.10;3.83;;;17.80;99.90;;;;;;5071474;28;20020;-71
2023/09/29 01:30:04;;;;;;;15.13;4.00;;;17.80;99.90;;;;;;5084697;28;20024;-71
2023/09/29 01:32:30;;;;;;;19.00;4.15;;;17.80;99.90;;;;;;5071565;28;20016;-71
2023/09/29 01:34:56;;;;;;;21.63;4.18;;;17.80;99.90;;;;;;5071459;28;20025;-71
2023/09/29 01:37:21;;;;;;;13.98;4.10;;;17.80;99.90;;;;;;5070940;28;20020;-71
2023/09/29 01:39:47;;;;;;;17.52;4.20;;;17.80;99.90;;;;;;5071024;28;20100;-71
2023/09/29 01:42:13;;;;;;;18.75;4.80;;;17.80;99.90;;;;;;5071332;28;20016;-71
2023/09/29 01:44:38;;;;;;;19.13;4.05;;;17.80;99.90;;;;;;5059091;28;20472;-71
2023/09/29 01:47:04;;;;;;;18.27;4.07;;;17.90;99.90;;;;;;5071401;28;20021;-71
2023/09/29 01:49:30;;;;;;;18.63;4.13;;;17.90;99.90;;;;;;5071143;28;20052;-71
2023/09/29 01:51:55;;;;;;;14.35;4.05;;;17.90;99.90;;;;;;5064875;28;20025;-72
2023/09/29 01:54:21;;;;;;;19.80;3.95;;;17.90;99.90;;;;;;5067267;28;20030;-72
2023/09/29 01:56:46;;;;;;;17.10;4.25;;;17.90;99.90;;;;;;5071301;28;20036;-72
2023/09/29 01:59:13;;;;;;;22.60;4.90;;;18.00;99.90;;;;;;5071512;28;20028;-71
2023/09/29 02:01:38;;;;;;;19.42;4.68;;;18.00;99.90;;;;;;5070828;28;20376;-71
2023/09/29 02:04:04;;;;;;;18.95;4.60;;;18.00;99.90;;;;;;5071009;28;20028;-71
2023/09/29 02:06:31;;;;;;;20.25;4.20;;;18.00;99.90;;;;;;5070236;28;20048;-71
2023/09/29 02:08:57;;;;;;;18.67;4.82;;;18.00;99.90;;;;;;5063716;28;20016;-71
2023/09/29 02:11:22;;;;;;;21.15;4.45;;;18.00;99.90;;;;;;5070870;28;20453;-71
2023/09/29 02:13:48;;;;;;;18.88;4.97;;;18.00;99.90;;;;;;5070288;28;20106;-71
2023/09/29 02:16:15;;;;;;;19.17;4.75;;;18.00;99.90;;;;;;5071102;28;20024;-71
2023/09/29 02:18:41;;;;;;;19.00;4.18;;;18.00;99.90;;;;;;5070841;28;20012;-71
2023/09/29 02:21:07;;;;;;;19.10;4.40;;;18.00;99.90;;;;;;5086042;28;20074;-71
2023/09/29 02:23:33;;;;;;;19.00;4.60;;;18.00;99.90;;;;;;5070436;28;20468;-71
2023/09/29 02:26:00;;;;;;;17.25;4.30;;;18.00;99.90;;;;;;5069489;28;20043;-71
2023/09/29 02:28:30;;;;;;;24.55;4.22;;;18.00;99.90;;;;;;5070872;28;20372;-71
2023/09/29 02:31:02;;;;;;;20.45;4.60;;;18.00;99.90;;;;;;5074704;28;20067;-71
2023/09/29 02:33:29;;;;;;;15.13;4.07;;;18.00;99.90;;;;;;5074968;28;20024;-71
2023/09/29 02:35:56;;;;;;;19.25;4.80;;;18.00;99.90;;;;;;5074356;28;20047;-72
2023/09/29 02:38:22;;;;;;;18.58;4.90;;;18.00;99.90;;;;;;5075333;28;20016;-71
2023/09/29 02:40:48;;;;;;;19.13;4.53;;;18.00;99.90;;;;;;5075239;28;20012;-71
2023/09/29 02:43:15;;;;;;;19.88;5.05;;;18.00;99.90;;;;;;5064544;28;20082;-71
2023/09/29 02:45:40;;;;;;;19.75;4.75;;;18.00;99.90;;;;;;5074991;28;20024;-71
2023/09/29 02:48:06;;;;;;;18.88;4.65;;;17.90;99.90;;;;;;5074573;28;20019;-71
2023/09/29 02:50:35;;;;;;;18.60;4.93;;;17.90;99.90;;;;;;5074935;28;20053;-71
2023/09/29 02:53:02;;;;;;;15.82;5.07;;;17.80;99.90;;;;;;5072174;28;20413;-71
2023/09/29 02:55:28;;;;;;;17.58;4.47;;;17.80;99.90;;;;;;5073642;28;20164;-71
2023/09/29 02:57:54;;;;;;;19.95;4.70;;;17.80;99.90;;;;;;5070555;28;20495;-71
2023/09/29 03:00:21;;;;;;;20.13;4.35;;;17.70;99.90;;;;;;5069824;28;20021;-71
2023/09/29 03:02:48;;;;;;;22.38;4.97;;;17.80;99.90;;;;;;5069482;28;20013;-71
2023/09/29 03:05:15;;;;;;;16.52;4.55;;;17.70;99.90;;;;;;5069547;28;20068;-71
2023/09/29 03:07:41;;;;;;;13.48;3.97;;;17.80;99.90;;;;;;5074233;28;20028;-71
2023/09/29 03:10:08;;;;;;;14.82;4.40;;;17.70;99.90;;;;;;5062727;28;20025;-71
2023/09/29 03:12:33;;;;;;;19.05;4.10;;;17.80;99.90;;;;;;5070442;28;20487;-71
2023/09/29 03:14:59;;;;;;;17.33;4.45;;;17.70;99.90;;;;;;5073774;28;20032;-71
2023/09/29 03:17:24;;;;;;;18.58;4.63;;;17.80;99.90;;;;;;5062699;28;20017;-71
2023/09/29 03:19:52;;;;;;;16.15;4.30;;;17.80;99.90;;;;;;5073759;28;20043;-71
2023/09/29 03:22:18;;;;;;;13.30;3.97;;;17.70;99.90;;;;;;5073973;28;20023;-71
2023/09/29 03:24:44;;;;;;;17.20;4.18;;;17.80;99.90;;;;;;5074357;28;20051;-71
2023/09/29 03:27:10;;;;;;;12.75;4.05;;;17.70;99.90;;;;;;5074084;28;20052;-71
2023/09/29 03:29:35;;;;;;;14.05;4.20;;;17.80;99.90;;;;;;5073549;28;20012;-71
2023/09/29 03:32:01;;;;;;;16.60;4.60;;;17.80;99.90;;;;;;5073922;28;20024;-71
2023/09/29 03:34:27;;;;;;;13.77;4.18;;;17.80;99.90;;;;;;5073432;28;20051;-71
2023/09/29 03:36:53;;;;;;;16.05;3.90;;;17.80;99.90;;;;;;5072698;28;20257;-71
2023/09/29 03:39:18;;;;;;;17.90;4.15;;;17.80;99.90;;;;;;5073028;28;20027;-71
2023/09/29 03:41:44;;;;;;;17.75;3.97;;;17.80;99.90;;;;;;5073480;28;20024;-71
2023/09/29 03:44:12;;;;;;;17.83;4.07;;;17.80;99.90;;;;;;5073209;28;20024;-71
2023/09/29 03:46:38;;;;;;;14.93;4.40;;;17.80;99.90;;;;;;5073436;28;20360;-71
2023/09/29 03:49:04;;;;;;;17.00;4.30;;;17.80;99.90;;;;;;5073220;28;20032;-71
2023/09/29 03:51:30;;;;;;;16.30;4.00;;;17.80;99.90;;;;;;5073368;28;20021;-71
2023/09/29 03:53:57;;;;;;;14.57;4.07;;;17.90;99.90;;;;;;5088968;28;20024;-71
2023/09/29 03:56:23;;;;;;;17.00;3.92;;;17.90;99.90;;;;;;5073202;28;20099;-71
2023/09/29 03:58:49;;;;;;;14.18;3.85;;;17.80;99.90;;;;;;5073428;28;20167;-71
2023/09/29 04:01:15;;;;;;;15.50;4.40;;;17.80;99.90;;;;;;5072908;28;20024;-71
2023/09/29 04:03:42;;;;;;;18.90;4.75;;;17.80;99.90;;;;;;5072502;28;20017;-71
2023/09/29 04:06:08;;;;;;;13.80;4.22;;;17.90;99.90;;;;;;5073249;28;20396;-71
2023/09/29 04:08:33;;;;;;;17.20;4.50;;;17.80;99.90;;;;;;5073035;28;20118;-71
2023/09/29 04:10:59;;;;;;;13.93;4.13;;;17.80;99.90;;;;;;5073264;28;20024;-71
2023/09/29 04:13:25;;;;;;;15.32;4.47;;;17.80;99.90;;;;;;5072919;28;20074;-71
2023/09/29 04:15:51;;;;;;;13.68;3.95;;;17.90;99.90;;;;;;5072627;28;20060;-71
2023/09/29 04:18:16;;;;;;;13.60;4.00;;;17.90;99.90;;;;;;5073217;28;20048;-71
2023/09/29 04:20:42;;;;;;;16.17;4.38;;;17.90;99.90;;;;;;5073212;28;20044;-71
2023/09/29 04:23:08;;;;;;;15.68;4.97;;;17.90;99.90;;;;;;5072672;28;20021;-71
2023/09/29 04:25:33;;;;;;;14.13;3.88;;;17.90;99.90;;;;;;5072772;28;20435;-71
2023/09/29 04:27:59;;;;;;;12.13;4.00;;;17.90;99.90;;;;;;5072890;28;20470;-71
2023/09/29 04:30:25;;;;;;;14.27;3.88;;;17.90;99.90;;;;;;5072408;28;20027;-71
2023/09/29 04:32:52;;;;;;;16.48;4.40;;;17.90;99.90;;;;;;5072532;28;20025;-71
2023/09/29 04:35:18;;;;;;;15.35;4.20;;;17.90;99.90;;;;;;5072838;28;20021;-71
2023/09/29 04:37:44;;;;;;;12.60;4.00;;;17.90;99.90;;;;;;5072210;28;20024;-71
2023/09/29 04:40:10;;;;;;;14.18;4.43;;;17.90;99.90;;;;;;5072487;28;20031;-71
2023/09/29 04:42:36;;;;;;;15.10;4.15;;;17.90;99.90;;;;;;5072759;28;21095;-71
2023/09/29 04:45:02;;;;;;;19.52;4.18;;;17.90;99.90;;;;;;5072279;28;20032;-71
2023/09/29 04:47:27;;;;;;;16.45;4.50;;;17.90;99.90;;;;;;5070641;28;20096;-71
2023/09/29 04:49:53;;;;;;;13.20;3.90;;;17.90;99.90;;;;;;5066415;28;20080;-71
2023/09/29 04:52:19;;;;;;;14.32;4.30;;;17.90;99.90;;;;;;5066001;28;20473;-71
2023/09/29 04:54:45;;;;;;;14.60;4.70;;;17.90;99.90;;;;;;5071669;28;20029;-71
2023/09/29 04:57:10;;;;;;;14.07;4.50;;;17.90;99.90;;;;;;5071591;28;20020;-71
2023/09/29 04:59:36;;;;;;;15.30;4.70;;;17.90;99.90;;;;;;5071918;28;20375;-71
2023/09/29 05:02:01;;;;;;;14.15;4.57;;;17.90;99.90;;;;;;5067144;28;20759;-71
2023/09/29 05:04:27;;;;;;;13.70;4.50;;;17.90;99.90;;;;;;5065824;28;20031;-71
2023/09/29 05:06:53;;;;;;;10.90;4.80;;;17.90;99.90;;;;;;5071439;28;20078;-71
2023/09/29 05:09:19;;;;;;;13.45;4.72;;;17.90;99.90;;;;;;5071455;28;20021;-71
2023/09/29 05:11:45;;;;;;;12.95;4.35;;;17.90;99.90;;;;;;5068994;28;20020;-72
2023/09/29 05:14:11;;;;;;;12.93;4.38;;;17.90;99.90;;;;;;5067637;28;20023;-71
2023/09/29 05:16:36;;;;;;;12.85;4.38;;;17.90;99.90;;;;;;5071212;28;20508;-71
2023/09/29 05:19:02;;;;;;;14.50;4.00;;;17.90;99.90;;;;;;5068686;28;20036;-71
2023/09/29 05:21:28;;;;;;;16.63;3.88;;;18.00;99.90;;;;;;5068648;28;20017;-71
2023/09/29 05:23:53;;;;;;;14.38;4.65;;;18.00;99.90;;;;;;5070897;28;20021;-71
2023/09/29 05:26:19;;;;;;;15.05;4.20;;;18.10;99.90;;;;;;5071198;28;20103;-71
2023/09/29 05:28:45;;;;;;;11.95;4.03;;;18.10;99.90;;;;;;5071537;28;20509;-71
2023/09/29 05:31:10;;;;;;;12.55;3.78;;;18.10;99.90;;;;;;5068140;28;20036;-70
2023/09/29 05:33:36;;;;;;;12.35;4.18;;;18.10;99.90;;;;;;5068998;28;20027;-71
2023/09/29 05:36:03;;;;;;;12.07;4.10;;;18.20;99.90;;;;;;5070848;28;20115;-71
2023/09/29 05:38:29;;;;;;;11.82;3.72;;;18.20;99.90;;;;;;5067657;28;20320;-72
2023/09/29 05:40:54;;;;;;;11.77;3.50;;;18.30;99.90;;;;;;5064029;28;20060;-72
2023/09/29 05:43:20;;;;;;;11.00;4.00;;;18.30;99.90;;;;;;5070696;28;20028;-71
2023/09/29 05:45:47;;;;;;;11.48;3.75;;;18.30;99.90;;;;;;5069204;28;20071;-71
2023/09/29 05:48:12;;;;;;;15.02;4.38;;;18.40;99.90;;;;;;5070499;28;20020;-71
2023/09/29 05:50:38;;;;;;;11.80;3.70;;;18.40;99.90;;;;;;5070982;28;20375;-72
2023/09/29 05:53:04;;;;;;;11.45;3.70;;;18.40;99.90;;;;;;5070833;28;20103;-72
2023/09/29 05:55:30;;;;;;;10.75;3.78;;;18.50;99.90;;;;;;5070939;28;20035;-71
2023/09/29 05:57:57;;;;;;;10.02;3.88;;;18.50;99.90;;;;;;5070210;28;20028;-71
2023/09/29 06:00:24;;;;;;;13.27;3.67;;;18.50;99.90;;;;;;5071184;28;20016;-71
2023/09/29 06:02:50;;;;;;;9.55;3.33;;;18.50;99.90;;;;;;5071270;28;20349;-71
2023/09/29 06:05:16;;;;;;;7.38;3.30;;;18.60;99.90;;;;;;5070954;28;20056;-71
2023/09/29 06:07:42;;;;;;;11.68;3.70;;;18.60;99.90;;;;;;5070773;28;20028;-71
2023/09/29 06:10:09;;;;;;;11.18;3.70;;;18.60;99.90;;;;;;5071405;28;20021;-71
2023/09/29 06:12:35;;;;;;;9.98;3.38;;;18.60;99.90;;;;;;5071108;28;20066;-71
2023/09/29 06:15:00;;;;;;;11.15;3.72;;;18.60;99.90;;;;;;5070955;28;20025;-71
2023/09/29 06:17:26;;;;;;;8.35;3.55;;;18.60;99.90;;;;;;5070822;28;20028;-71
2023/09/29 06:19:52;;;;;;;9.88;3.58;;;18.70;99.90;;;;;;5070879;28;20364;-71
2023/09/29 06:22:18;;;;;;;13.15;3.63;;;18.70;99.90;;;;;;5070615;28;20016;-71
2023/09/29 06:24:44;;;;;;;13.00;3.80;;;18.70;99.90;;;;;;5069276;28;20098;-71
2023/09/29 06:27:13;;;;;;;13.20;4.07;;;18.70;99.90;;;;;;5069592;28;20031;-71
2023/09/29 06:29:44;;;;;;;9.13;3.40;;;18.80;99.90;;;;;;5063328;28;20017;-71
2023/09/29 06:32:10;;;;;;;13.95;3.92;;;18.80;99.90;;;;;;5070428;28;20036;-71
2023/09/29 06:34:36;;;;;;;12.48;3.95;;;18.80;99.90;;;;;;5071150;28;20028;-71
2023/09/29 06:37:02;;;;;;;10.98;3.72;;;18.80;99.90;;;;;;5070664;28;20100;-73
2023/09/29 06:39:29;;;;;;;11.27;3.85;;;18.80;99.90;;;;;;5070666;28;20020;-71
2023/09/29 06:41:54;;;;;;;12.57;4.05;;;18.90;99.90;;;;;;5070434;28;20043;-70
2023/09/29 06:44:21;;;;;;;9.48;3.90;;;18.90;99.90;;;;;;5070570;28;20013;-71
2023/09/29 06:46:47;;;;;;;9.90;3.80;;;18.90;99.90;;;;;;5070813;28;20035;-71
2023/09/29 06:49:13;;;;;;;9.75;4.03;;;18.90;99.90;;;;;;5070458;28;20103;-71
2023/09/29 06:51:38;;;;;;;12.25;3.75;;;18.90;99.90;;;;;;5070651;28;20017;-71
2023/09/29 06:54:04;;;;;;;9.45;3.88;;;18.80;99.90;;;;;;5070401;28;20067;-71
2023/09/29 06:56:30;;;;;;;9.55;4.00;;;18.80;99.90;;;;;;5070349;28;20486;-70
2023/09/29 06:58:55;;;;;;;9.63;4.20;;;18.80;99.90;;;;;;5070417;28;20360;-71
2023/09/29 07:01:21;;;;;;;12.23;4.22;;;18.80;99.90;;;;;;5070393;28;20061;-71
2023/09/29 07:03:47;;;;;;;16.85;4.20;;;18.80;99.90;;;;;;5061040;28;20032;-71
2023/09/29 07:06:14;;;;;;;14.18;4.50;;;18.90;99.90;;;;;;5070202;28;20050;-71
2023/09/29 07:08:39;;;;;;;12.73;4.40;;;18.90;99.90;;;;;;5059618;28;20021;-71
2023/09/29 07:11:05;;;;;;;10.88;4.28;;;18.90;99.90;;;;;;5070566;28;20039;-71
2023/09/29 07:13:31;;;;;;;11.88;4.10;;;19.00;99.90;;;;;;5070235;28;20027;-71
2023/09/29 07:15:56;;;;;;;9.77;3.88;;;19.00;99.90;;;;;;5072563;28;20027;-71
2023/09/29 07:18:23;;;;;;;10.18;3.92;;;19.00;99.90;;;;;;5072610;28;20028;-71
2023/09/29 07:20:52;;;;;;;11.90;4.05;;;19.00;99.90;;;;;;5073704;28;20048;-71
2023/09/29 07:23:21;;;;;;;12.30;3.95;;;19.10;99.90;;;;;;5074106;28;20028;-71
2023/09/29 07:25:47;;;;;;;11.68;4.07;;;19.10;99.90;;;;;;5073853;28;20040;-71
2023/09/29 07:28:14;;;;;;;12.35;4.13;;;19.10;99.90;;;;;;5073660;28;20056;-71
2023/09/29 07:30:44;;;;;;;9.45;3.95;;;19.20;99.90;;;;;;5073538;28;20078;-72
2023/09/29 07:33:10;;;;;;;11.88;4.45;;;19.20;99.90;;;;;;5073858;28;20453;-71
2023/09/29 07:35:36;;;;;;;12.63;4.22;;;19.20;99.90;;;;;;5073439;28;20028;-71
2023/09/29 07:38:02;;;;;;;10.23;3.95;;;19.20;99.90;;;;;;5073684;28;20093;-71
2023/09/29 07:40:28;;;;;;;11.43;3.80;;;19.10;99.90;;;;;;5073834;28;20016;-71
2023/09/29 07:42:53;;;;;;;10.45;3.80;;;19.10;99.90;;;;;;5073507;28;20021;-72
2023/09/29 07:45:20;;;;;;;11.23;3.72;;;19.10;99.90;;;;;;5073611;28;20087;-71
2023/09/29 07:47:46;;;;;;;10.77;4.18;;;19.10;99.90;;;;;;5062176;28;20027;-71
2023/09/29 07:50:12;;;;;;;9.45;3.92;;;19.20;99.90;;;;;;5073485;28;20406;-71
2023/09/29 07:52:39;;;;;;;9.55;4.05;;;19.20;99.90;;;;;;5073202;28;20016;-71
2023/09/29 07:55:06;;;;;;;9.93;3.70;;;19.30;99.90;;;;;;5073443;28;20787;-71
2023/09/29 07:57:31;;;;;;;9.75;3.50;;;19.30;99.90;;;;;;5073286;28;20476;-71
2023/09/29 07:59:57;;;;;;;13.18;4.15;;;19.40;99.90;;;;;;5072056;28;20030;-71
2023/09/29 08:02:24;;;;;;;8.57;3.78;;;19.40;99.90;;;;;;5066647;28;20504;-71
2023/09/29 08:04:49;;;;;;;11.25;4.10;;;19.50;99.90;;;;;;5067716;28;20048;-71
2023/09/29 08:07:17;;;;;;;8.80;3.30;;;19.50;99.90;;;;;;5073459;28;20056;-71
2023/09/29 08:09:43;;;;;;;12.13;3.67;;;19.60;99.90;;;;;;5072826;28;20623;-70
2023/09/29 08:12:08;;;;;;;8.75;3.83;;;19.60;99.90;;;;;;5073062;28;20048;-71
2023/09/29 08:14:34;;;;;;;10.00;3.70;;;19.70;99.90;;;;;;5069289;28;20116;-71
2023/09/29 08:17:00;;;;;;;8.93;3.40;;;19.80;99.90;;;;;;5069878;28;20045;-71
2023/09/29 08:19:25;;;;;;;10.10;3.60;;;19.80;99.90;;;;;;5072338;28;20066;-71
2023/09/29 08:21:51;;;;;;;8.68;3.35;;;19.90;99.90;;;;;;5070341;28;20032;-71
2023/09/29 08:24:16;;;;;;;9.45;3.70;;;20.00;99.90;;;;;;5072342;28;20034;-71
2023/09/29 08:26:42;;;;;;;9.63;3.50;;;20.00;99.90;;;;;;5072740;28;20364;-71
2023/09/29 08:29:10;;;;;;;7.20;3.60;;;20.10;99.90;;;;;;5072484;28;20408;-71
2023/09/29 08:31:35;;;;;;;8.98;3.53;;;20.10;99.90;;;;;;5073044;28;20017;-71
2023/09/29 08:34:03;;;;;;;6.32;3.42;;;20.20;99.90;;;;;;5072367;28;20028;-71
2023/09/29 08:36:29;;;;;;;11.05;3.42;;;20.20;99.90;;;;;;5072731;28;20491;-71
2023/09/29 08:38:54;;;;;;;8.65;3.25;;;20.30;99.90;;;;;;5061015;28;20041;-71
2023/09/29 08:41:26;;;;;;;11.93;3.65;;;20.30;99.90;;;;;;5072264;28;20498;-71
2023/09/29 08:43:52;;;;;;;13.50;3.67;;;20.30;99.90;;;;;;5072369;28;20503;-71
2023/09/29 08:46:19;;;;;;;7.18;3.05;;;20.30;99.90;;;;;;5072462;28;20035;-71
2023/09/29 08:48:46;;;;;;;7.47;3.28;;;20.40;99.90;;;;;;5072060;28;20032;-71
2023/09/29 08:51:13;;;;;;;9.82;3.50;;;20.40;99.90;;;;;;5071460;28;20016;-71
2023/09/29 08:53:43;;;;;;;7.93;3.60;;;20.30;99.90;;;;;;5072157;28;20021;-71
2023/09/29 08:56:12;;;;;;;5.75;3.72;;;20.30;99.90;;;;;;5070636;28;20020;-71
2023/09/29 08:58:38;;;;;;;8.43;3.72;;;20.30;99.90;;;;;;5065851;28;20013;-72
2023/09/29 09:01:05;;;;;;;11.52;3.88;;;20.20;99.90;;;;;;5072217;28;20025;-72
2023/09/29 09:03:31;;;;;;;12.98;3.85;;;20.20;99.90;;;;;;5061583;28;20020;-72
2023/09/29 09:05:57;;;;;;;9.32;3.10;;;20.10;99.90;;;;;;5087425;28;20063;-71
2023/09/29 09:08:24;;;;;;;7.47;3.38;;;20.00;99.90;;;;;;5071762;28;20025;-71
2023/09/29 09:11:00;;;;;;;7.65;3.42;;;19.90;99.90;;;;;;5071666;28;20519;-71
2023/09/29 09:13:26;;;;;;;9.75;4.22;;;19.80;99.90;;;;;;5068864;28;20028;-71
2023/09/29 09:16:00;;;;;;;10.80;3.85;;;19.80;99.90;;;;;;5065912;28;20040;-71
2023/09/29 09:18:29;;;;;;;9.20;4.18;;;19.80;99.90;;;;;;5071607;28;20009;-71
2023/09/29 09:20:57;;;;;;;6.30;3.72;;;19.80;99.90;;;;;;5071922;28;20021;-71
2023/09/29 09:23:23;;;;;;;7.38;4.25;;;19.80;99.90;;;;;;5066873;28;20531;-71
2023/09/29 09:25:49;;;;;;;9.52;4.90;;;19.80;99.90;;;;;;5071299;28;20042;-70
2023/09/29 09:28:19;;;;;;;10.15;4.88;;;19.80;99.90;;;;;;5067939;28;20042;-71
2023/09/29 09:30:46;;;;;;;11.00;5.28;;;19.80;99.90;;;;;;5071452;28;20020;-70
2023/09/29 09:33:23;;;;;;;9.25;5.00;;;19.80;99.90;;;;;;5071535;28;20475;-72
2023/09/29 09:36:02;;;;;;;8.85;4.55;;;19.80;99.90;;;;;;5071243;28;20025;-71
2023/09/29 09:38:34;;;;;;;11.07;4.72;;;19.80;99.90;;;;;;5065109;28;20029;-70
2023/09/29 09:41:01;;;;;;;6.70;4.18;;;19.80;99.90;;;;;;5063881;28;20027;-70
2023/09/29 09:43:30;;;;;;;9.23;4.00;;;19.80;99.90;;;;;;5071610;28;20027;-71
2023/09/29 09:46:06;;;;;;;8.27;4.10;;;19.80;99.90;;;;;;5065450;28;20029;-72
2023/09/29 09:48:49;;;;;;;9.07;4.10;;;19.90;99.90;;;;;;5069913;28;20048;-71
2023/09/29 09:51:33;;;;;;;8.57;4.15;;;19.90;99.90;;;;;;5071054;28;20028;-71
2023/09/29 09:54:08;;;;;;;9.52;4.35;;;19.90;99.90;;;;;;5062588;28;20024;-72
2023/09/29 09:56:50;;;;;;;6.93;4.13;;;19.90;99.90;;;;;;5069040;28;20028;-72
2023/09/29 09:59:16;;;;;;;6.15;3.90;;;20.00;99.90;;;;;;5052765;28;20083;-72
2023/09/29 10:01:43;;;;;;;9.27;4.22;;;19.90;99.90;;;;;;5066280;28;20048;-72
2023/09/29 10:04:12;;;;;;;8.43;4.05;;;19.80;99.90;;;;;;5060577;28;20019;-72
2023/09/29 10:06:39;;;;;;;6.95;3.22;;;19.80;99.90;;;;;;5070862;28;20075;-72
2023/09/29 10:09:09;;;;;;;5.70;2.72;;;19.70;99.90;;;;;;5071193;28;20032;-72
2023/09/29 10:11:35;;;;;;;5.22;2.50;;;19.70;99.90;;;;;;5070698;28;20034;-72
2023/09/29 10:14:07;;;;;;;6.82;2.30;;;19.60;99.90;;;;;;5070719;28;20099;-72
2023/09/29 10:16:35;;;;;;;7.38;2.15;;;19.50;99.90;;;;;;5071342;28;20047;-72
2023/09/29 10:19:10;;;;;;;8.50;2.17;;;19.40;99.90;;;;;;5071185;28;20048;-72
2023/09/29 10:21:45;;;;;;;7.70;2.03;;;19.30;99.90;;;;;;5071269;28;20027;-71
2023/09/29 10:24:13;;;;;;;9.00;2.35;;;19.20;99.90;;;;;;5071186;28;20046;-71
2023/09/29 10:26:46;;;;;;;6.85;2.15;;;19.10;99.90;;;;;;5070819;28;20016;-71
2023/09/29 10:29:38;;;;;;;9.70;2.10;;;19.00;99.90;;;;;;5069466;28;20029;-71
2023/09/29 10:32:13;;;;;;;11.07;2.05;;;18.90;99.90;;;;;;5070952;28;20614;-71
2023/09/29 10:34:40;;;;;;;8.88;1.80;;;18.90;99.90;;;;;;5070815;28;20052;-71
2023/09/29 10:37:06;;;;;;;8.98;1.83;;;18.90;99.90;;;;;;5070720;28;20028;-71
2023/09/29 10:39:36;;;;;;;8.18;2.28;;;18.80;99.90;;;;;;5071063;28;20483;-71
2023/09/29 10:42:14;;;;;;;8.55;1.80;;;18.80;99.90;;;;;;5071221;28;20046;-70
2023/09/29 10:44:52;;;;;;;8.63;1.70;;;18.80;99.90;;;;;;5070277;28;20455;-72
2023/09/29 10:47:30;;;;;;;8.77;1.70;;;18.80;99.90;;;;;;5066120;28;20432;-72
2023/09/29 10:50:04;;;;;;;11.57;1.92;;;18.80;99.90;;;;;;5068625;28;20537;-71
2023/09/29 10:52:30;;;;;;;6.53;2.03;;;18.80;99.90;;;;;;5072680;28;20031;-71
2023/09/29 10:54:58;;;;;;;7.10;2.10;;;18.80;99.90;;;;;;5074342;28;20021;-71
2023/09/29 10:57:25;;;;;;;11.57;2.42;;;18.80;99.90;;;;;;5074460;28;20017;-71
2023/09/29 10:59:52;;;;;;;10.07;2.22;;;18.90;99.90;;;;;;5074613;28;20078;-71
2023/09/29 11:02:18;;;;;;;8.18;2.10;;;18.80;99.90;;;;;;5074511;28;20025;-71
2023/09/29 11:04:47;;;;;;;9.13;1.90;;;18.80;99.90;;;;;;5073981;28;20060;-71
2023/09/29 11:07:15;;;;;;;13.57;2.38;;;18.80;99.90;;;;;;5074180;28;20017;-71
2023/09/29 11:09:41;;;;;;;10.98;1.88;;;18.80;99.90;;;;;;5074012;28;20059;-71
2023/09/29 11:12:17;;;;;;;6.97;1.77;;;18.90;99.90;;;;;;5074064;28;21505;-71
2023/09/29 11:14:43;;;;;;;8.57;1.80;;;18.90;99.90;;;;;;5074069;28;20033;-71
2023/09/29 11:17:10;;;;;;;11.85;2.15;;;18.90;99.90;;;;;;5071959;28;20044;-71
2023/09/29 11:19:36;;;;;;;15.30;2.67;;;19.00;99.90;;;;;;5069886;28;20017;-71
2023/09/29 11:22:02;;;;;;;7.82;1.55;;;19.00;99.90;;;;;;5073556;28;20480;-71
2023/09/29 11:24:40;;;;;;;11.80;2.03;;;19.00;99.90;;;;;;5071996;28;20074;-71
2023/09/29 11:27:06;;;;;;;9.60;1.70;;;19.00;99.90;;;;;;5073208;28;20031;-72
2023/09/29 11:29:32;;;;;;;10.93;1.58;;;19.00;99.90;;;;;;5073545;28;20024;-72
2023/09/29 11:32:01;;;;;;;7.25;1.40;;;19.00;99.90;;;;;;5068563;28;20033;-72
2023/09/29 11:34:29;;;;;;;9.82;1.83;;;18.90;99.90;;;;;;5073056;28;20353;-72
2023/09/29 11:36:55;;;;;;;6.63;1.67;;;18.90;99.90;;;;;;5074020;28;20025;-73
2023/09/29 11:39:22;;;;;;;11.63;1.63;;;18.90;99.90;;;;;;5072901;28;20027;-71
2023/09/29 11:41:48;;;;;;;7.82;1.50;;;18.90;99.90;;;;;;5066092;28;20021;-72
2023/09/29 11:44:15;;;;;;;8.70;1.48;;;18.80;99.90;;;;;;5073920;28;20086;-72
2023/09/29 11:46:41;;;;;;;7.88;1.70;;;18.80;99.90;;;;;;5074088;28;20055;-72
2023/09/29 11:49:09;;;;;;;6.60;1.45;;;18.90;99.90;;;;;;5062165;28;20044;-71
2023/09/29 11:51:36;;;;;;;7.25;1.85;;;18.90;99.90;;;;;;5073132;28;20103;-71
2023/09/29 11:54:02;;;;;;;9.82;1.90;;;19.00;99.90;;;;;;5073357;28;20017;-71
2023/09/29 11:56:28;;;;;;;11.32;2.20;;;19.00;99.90;;;;;;5073478;28;20024;-71
2023/09/29 11:58:56;;;;;;;8.50;1.77;;;19.10;99.90;;;;;;5073042;28;20086;-72
2023/09/29 12:01:22;;;;;;;10.20;2.38;;;19.10;99.90;;;;;;5072692;28;20583;-71
2023/09/29 12:03:48;;;;;;;13.00;2.53;;;19.20;99.90;;;;;;5072907;28;20044;-71
2023/09/29 12:06:13;;;;;;;16.35;2.97;;;19.20;99.90;;;;;;5072750;28;20059;-71
2023/09/29 12:08:40;;;;;;;12.90;2.92;;;19.30;99.90;;;;;;5072535;28;20082;-71
2023/09/29 12:11:07;;;;;;;15.25;3.35;;;19.30;99.90;;;;;;5068656;28;20021;-70
2023/09/29 12:13:33;;;;;;;16.35;3.45;;;19.20;99.90;;;;;;5072730;28;20593;-71
2023/09/29 12:15:59;;;;;;;16.55;3.50;;;19.10;99.90;;;;;;5070777;28;20463;-70
2023/09/29 12:18:28;;;;;;;18.23;4.03;;;19.00;99.90;;;;;;5072804;28;20035;-71
2023/09/29 12:20:56;;;;;;;19.15;3.95;;;19.00;99.90;;;;;;5070227;28;20028;-72
2023/09/29 12:23:21;;;;;;;18.75;4.10;;;19.10;99.90;;;;;;5072626;28;20062;-72
2023/09/29 12:25:47;;;;;;;23.52;3.78;;;19.10;99.90;;;;;;5071744;28;20032;-72
2023/09/29 12:28:15;;;;;;;17.90;3.28;;;19.10;99.90;;;;;;5072483;28;20025;-72
2023/09/29 12:30:43;;;;;;;19.40;4.03;;;19.10;99.90;;;;;;5072489;28;20476;-72
2023/09/29 12:33:10;;;;;;;16.42;3.50;;;19.10;99.90;;;;;;5072043;28;20047;-72
2023/09/29 12:35:36;;;;;;;20.40;3.42;;;19.10;99.90;;;;;;5071553;28;20028;-72
2023/09/29 12:38:01;;;;;;;18.00;3.65;;;19.20;99.90;;;;;;5072540;28;20025;-71
2023/09/29 12:40:27;;;;;;;9.93;2.90;;;19.20;99.90;;;;;;5071916;28;20024;-71